Bear River, Canada
Current Conditions -  °F | °C
As of 8:00 PM on Saturday 25 Oct 2014 (Local Time) from CYZX Reporting Station
Light Rain Light Rain  
Wind Chill: 48°   Ceiling: 800
Heat Index: 48°   Visibility: 2mi
Dew Point: 46°   Wind: 0mph
Humidity: 93%   Direction: NA
Pressure: 29.55"   Gusts: NA
Location:  44.57°N, 65.63°W
Report Text: CYZX 252300Z 00000KT 2SM -RA BR BKN008 BKN013 OVC027 09/08 A2955 RMK SF5SF2SC1 WNDY HILL 35007KT SLP008
Loading
Personal Weather Stations






























Interactive Weather Map
Tropical Storm Tracking
New forecast layout! Learn more

10-Day Weather Forecast

Advertisements
Track Severe Weather on mobile